createdAt,value
2023-05-05T00:02:12.159Z,21.54
2023-05-05T00:04:38.709Z,21.49
2023-05-05T00:07:05.284Z,21.38
2023-05-05T00:09:31.781Z,21.46
2023-05-05T00:11:58.253Z,21.48
2023-05-05T00:14:24.728Z,21.58
2023-05-05T00:16:51.254Z,21.40
2023-05-05T00:19:17.855Z,21.55
2023-05-05T00:21:44.425Z,21.42
2023-05-05T00:24:10.971Z,21.47
2023-05-05T00:26:37.445Z,21.48
2023-05-05T00:29:03.930Z,21.50
2023-05-05T00:31:30.598Z,21.49
2023-05-05T00:33:57.132Z,21.51
2023-05-05T00:36:23.739Z,21.54
2023-05-05T00:38:50.227Z,21.57
2023-05-05T00:41:19.715Z,21.53
2023-05-05T00:43:46.218Z,21.53
2023-05-05T00:46:33.954Z,21.48
2023-05-05T00:49:00.934Z,21.30
2023-05-05T00:51:28.805Z,21.31
2023-05-05T00:53:55.699Z,21.22
2023-05-05T00:56:22.292Z,21.22
2023-05-05T00:58:49.350Z,21.17
2023-05-05T01:01:17.632Z,21.16
2023-05-05T01:03:44.583Z,21.18
2023-05-05T01:06:26.335Z,21.14
2023-05-05T01:09:08.763Z,21.08
2023-05-05T01:11:54.811Z,21.02
2023-05-05T01:15:10.118Z,21.02
2023-05-05T01:17:43.301Z,20.95
2023-05-05T01:20:17.551Z,20.92
2023-05-05T01:22:53.353Z,20.83
2023-05-05T01:25:56.574Z,20.78
2023-05-05T01:29:12.179Z,20.73
2023-05-05T01:31:44.383Z,20.79
2023-05-05T01:34:16.560Z,20.75
2023-05-05T01:36:55.409Z,20.79
2023-05-05T01:39:27.535Z,20.66
2023-05-05T01:41:57.796Z,20.64
2023-05-05T01:44:24.801Z,20.65
2023-05-05T01:46:52.992Z,20.60
2023-05-05T01:49:20.002Z,20.62
2023-05-05T01:51:48.781Z,20.65
2023-05-05T01:54:18.360Z,20.33
2023-05-05T01:56:48.101Z,20.46
2023-05-05T01:59:15.945Z,20.48
2023-05-05T02:01:45.558Z,20.50
2023-05-05T02:04:14.839Z,20.38
2023-05-05T02:06:44.240Z,20.48
2023-05-05T02:09:13.928Z,20.45
2023-05-05T02:11:41.157Z,20.37
2023-05-05T02:14:10.212Z,20.43
2023-05-05T02:16:42.210Z,20.38
2023-05-05T02:19:11.890Z,20.38
2023-05-05T02:21:38.772Z,20.23
2023-05-05T02:24:05.980Z,20.17
2023-05-05T02:26:36.355Z,20.11
2023-05-05T02:29:12.637Z,20.06
2023-05-05T02:31:46.410Z,20.07
2023-05-05T02:34:21.068Z,19.95
2023-05-05T02:36:52.582Z,19.96
2023-05-05T02:39:35.252Z,19.91
2023-05-05T02:42:04.859Z,19.93
2023-05-05T02:44:33.538Z,19.87
2023-05-05T02:47:02.297Z,19.91
2023-05-05T02:49:28.952Z,19.89
2023-05-05T02:51:55.490Z,19.87
2023-05-05T02:54:22.080Z,19.83
2023-05-05T02:56:53.492Z,19.77
2023-05-05T02:59:51.277Z,19.77
2023-05-05T03:02:43.311Z,19.77
2023-05-05T03:05:16.929Z,19.79
2023-05-05T03:08:02.166Z,19.71
2023-05-05T03:10:43.903Z,19.44
2023-05-05T03:13:14.302Z,19.59
2023-05-05T03:15:47.694Z,19.53
2023-05-05T03:18:14.879Z,19.47
2023-05-05T03:20:42.696Z,19.51
2023-05-05T03:23:09.422Z,19.57
2023-05-05T03:25:47.192Z,19.52
2023-05-05T03:28:14.905Z,19.53
2023-05-05T03:30:42.579Z,19.49
2023-05-05T03:33:10.661Z,19.43
2023-05-05T03:35:37.379Z,19.48
2023-05-05T03:38:03.856Z,19.39
2023-05-05T03:40:43.005Z,19.22
2023-05-05T03:43:11.044Z,19.29
2023-05-05T03:45:37.584Z,19.23
2023-05-05T03:48:04.428Z,19.19
2023-05-05T03:50:30.893Z,19.27
2023-05-05T03:52:57.346Z,19.21
2023-05-05T03:55:23.884Z,19.15
2023-05-05T03:57:50.401Z,19.12
2023-05-05T04:00:17.269Z,19.12
2023-05-05T04:02:43.991Z,19.17
2023-05-05T04:05:10.566Z,19.14
2023-05-05T04:07:37.085Z,19.13
2023-05-05T04:10:03.731Z,19.11
2023-05-05T04:12:30.335Z,19.13
2023-05-05T04:14:56.900Z,19.14
2023-05-05T04:17:26.509Z,19.07
2023-05-05T04:19:52.987Z,19.04
2023-05-05T04:22:19.460Z,18.89
2023-05-05T04:24:45.973Z,18.96
2023-05-05T04:27:12.417Z,18.90
2023-05-05T04:29:38.942Z,18.97
2023-05-05T04:32:05.708Z,18.95
2023-05-05T04:34:32.239Z,18.96
2023-05-05T04:36:58.763Z,18.95
2023-05-05T04:39:25.261Z,18.94
2023-05-05T04:41:51.999Z,19.06
2023-05-05T04:44:18.486Z,19.14
2023-05-05T04:46:45.070Z,19.15
2023-05-05T04:49:11.572Z,19.15
2023-05-05T04:51:41.756Z,19.29
2023-05-05T04:54:08.507Z,19.32
2023-05-05T04:56:35.029Z,19.41
2023-05-05T04:59:01.507Z,19.42
2023-05-05T05:01:28.054Z,19.48
2023-05-05T05:03:54.603Z,19.56
2023-05-05T05:06:21.173Z,19.64
2023-05-05T05:08:47.629Z,19.71
2023-05-05T05:11:14.163Z,19.81
2023-05-05T05:13:40.665Z,19.87
2023-05-05T05:16:07.447Z,19.87
2023-05-05T05:18:33.955Z,20.01
2023-05-05T05:21:00.431Z,20.03
2023-05-05T05:23:26.933Z,20.07
2023-05-05T05:25:53.525Z,20.16
2023-05-05T05:28:20.063Z,20.24
2023-05-05T05:30:46.695Z,20.31
2023-05-05T05:33:13.437Z,20.40
2023-05-05T05:35:40.114Z,20.50
2023-05-05T05:38:06.649Z,20.57
2023-05-05T05:40:33.112Z,20.58
2023-05-05T05:42:59.716Z,20.48
2023-05-05T05:45:26.237Z,20.32
2023-05-05T05:47:52.761Z,20.41
2023-05-05T05:50:19.329Z,20.47
2023-05-05T05:52:46.084Z,20.57
2023-05-05T05:55:12.640Z,20.69
2023-05-05T05:57:39.148Z,20.77
2023-05-05T06:00:06.272Z,20.91
2023-05-05T06:02:32.920Z,21.03
2023-05-05T06:04:59.480Z,21.14
2023-05-05T06:07:25.953Z,21.24
2023-05-05T06:09:52.444Z,21.00
2023-05-05T06:12:18.924Z,20.96
2023-05-05T06:14:45.428Z,20.95
2023-05-05T06:17:11.927Z,21.05
2023-05-05T06:19:39.449Z,21.16
2023-05-05T06:22:06.009Z,21.08
2023-05-05T06:24:32.735Z,21.36
2023-05-05T06:26:59.300Z,21.48
2023-05-05T06:29:26.253Z,21.64
2023-05-05T06:31:52.888Z,21.64
2023-05-05T06:34:19.908Z,21.72
2023-05-05T06:36:46.455Z,21.96
2023-05-05T06:39:15.278Z,22.02
2023-05-05T06:41:42.506Z,22.06
2023-05-05T06:44:08.996Z,22.28
2023-05-05T06:46:35.632Z,22.50
2023-05-05T06:49:02.226Z,22.54
2023-05-05T06:51:29.780Z,22.44
2023-05-05T06:53:56.256Z,22.26
2023-05-05T06:56:22.724Z,22.46
2023-05-05T06:58:49.313Z,22.63
2023-05-05T07:01:15.884Z,22.62
2023-05-05T07:03:45.654Z,22.59
2023-05-05T07:06:12.161Z,22.47
2023-05-05T07:08:38.649Z,22.64
2023-05-05T07:11:05.138Z,22.62
2023-05-05T07:13:31.615Z,22.57
2023-05-05T07:15:58.141Z,22.41
2023-05-05T07:18:24.598Z,22.53
2023-05-05T07:20:51.069Z,22.61
2023-05-05T07:23:17.535Z,22.73
2023-05-05T07:25:44.265Z,22.76
2023-05-05T07:28:11.435Z,22.77
2023-05-05T07:30:37.965Z,22.93
2023-05-05T07:33:04.553Z,22.94
2023-05-05T07:35:31.081Z,22.97
2023-05-05T07:37:57.612Z,23.06
2023-05-05T07:40:24.167Z,22.93
2023-05-05T07:42:50.721Z,23.02
2023-05-05T07:45:17.395Z,23.07
2023-05-05T07:47:43.961Z,23.23
2023-05-05T07:50:10.821Z,23.28
2023-05-05T07:52:44.963Z,23.47
2023-05-05T07:55:14.954Z,23.53
2023-05-05T07:57:41.445Z,23.48
2023-05-05T08:00:08.624Z,23.48
2023-05-05T08:02:35.782Z,23.43
2023-05-05T08:05:02.433Z,23.28
2023-05-05T08:07:28.930Z,23.34
2023-05-05T08:09:55.492Z,23.42
2023-05-05T08:12:22.006Z,23.48
2023-05-05T08:14:48.512Z,23.71
2023-05-05T08:17:14.983Z,23.76
2023-05-05T08:19:41.459Z,23.56
2023-05-05T08:22:08.034Z,23.59
2023-05-05T08:24:37.080Z,23.33
2023-05-05T08:27:03.666Z,23.29
2023-05-05T08:29:30.186Z,23.33
2023-05-05T08:39:32.994Z,23.46
2023-05-05T08:41:59.868Z,23.53
2023-05-05T08:44:26.397Z,23.37
2023-05-05T08:46:54.034Z,23.46
2023-05-05T08:49:22.440Z,23.53
2023-05-05T08:51:52.327Z,23.69
2023-05-05T08:54:23.443Z,23.54
2023-05-05T08:56:50.413Z,23.52
2023-05-05T08:59:18.865Z,23.49
2023-05-05T09:01:46.230Z,23.57
2023-05-05T09:04:12.835Z,23.28
2023-05-05T09:06:40.190Z,23.30
2023-05-05T09:09:06.924Z,23.10
2023-05-05T09:11:34.981Z,22.95
2023-05-05T09:14:01.541Z,22.89
2023-05-05T09:16:28.120Z,22.99
2023-05-05T09:19:01.712Z,23.24
2023-05-05T09:21:28.275Z,23.33
2023-05-05T09:24:08.624Z,23.49
2023-05-05T09:26:38.398Z,23.29
2023-05-05T09:29:05.846Z,23.22
2023-05-05T09:31:34.042Z,23.26
2023-05-05T09:34:01.105Z,22.94
2023-05-05T09:36:47.458Z,22.57
2023-05-05T09:39:16.961Z,22.37
2023-05-05T09:41:44.396Z,22.71
2023-05-05T09:44:12.411Z,22.78
2023-05-05T09:46:50.761Z,22.77
2023-05-05T09:49:20.133Z,22.93
2023-05-05T09:51:47.551Z,22.99
2023-05-05T09:54:28.159Z,23.27
2023-05-05T09:56:56.308Z,23.33
2023-05-05T09:59:23.958Z,23.52
2023-05-05T10:01:51.711Z,23.64
2023-05-05T10:04:28.192Z,22.98
2023-05-05T10:06:58.649Z,23.31
2023-05-05T10:09:26.699Z,23.43
2023-05-05T10:11:53.728Z,23.57
2023-05-05T10:14:20.362Z,23.74
2023-05-05T10:16:49.628Z,23.65
2023-05-05T10:19:18.913Z,24.04
2023-05-05T10:22:03.400Z,24.03
2023-05-05T10:24:48.877Z,23.67
2023-05-05T10:27:19.942Z,23.75
2023-05-05T10:30:03.253Z,23.74
2023-05-05T10:35:25.141Z,23.31
2023-05-05T10:37:53.084Z,23.46
2023-05-05T10:40:24.617Z,23.28
2023-05-05T10:42:53.919Z,22.99
2023-05-05T10:45:20.733Z,22.80
2023-05-05T10:47:49.458Z,22.79
2023-05-05T10:50:28.863Z,23.07
2023-05-05T10:53:26.792Z,22.71
2023-05-05T10:55:57.126Z,22.78
2023-05-05T10:58:51.335Z,22.81
2023-05-05T11:01:48.856Z,22.93
2023-05-05T11:04:20.015Z,22.77
2023-05-05T11:07:08.486Z,23.21
2023-05-05T11:09:36.750Z,23.04
2023-05-05T11:12:05.260Z,23.26
2023-05-05T11:14:32.934Z,22.91
2023-05-05T11:16:59.585Z,23.17
2023-05-05T11:19:47.137Z,23.10
2023-05-05T11:22:14.180Z,23.39
2023-05-05T11:24:40.735Z,23.30
2023-05-05T11:27:07.590Z,23.14
2023-05-05T11:30:06.316Z,23.42
2023-05-05T11:32:32.941Z,23.62
2023-05-05T11:35:01.156Z,23.81
2023-05-05T11:37:28.869Z,23.79
2023-05-05T11:40:13.207Z,23.66
2023-05-05T11:42:39.884Z,24.01
2023-05-05T11:45:21.139Z,24.12
2023-05-05T11:47:47.706Z,24.20
2023-05-05T11:50:19.223Z,24.19
2023-05-05T11:52:47.064Z,24.14
2023-05-05T11:55:19.546Z,24.13
2023-05-05T11:57:46.107Z,24.29
2023-05-05T12:00:13.131Z,24.57
2023-05-05T12:02:39.745Z,24.35
2023-05-05T12:05:06.738Z,24.61
2023-05-05T12:07:33.778Z,24.76
2023-05-05T12:10:00.400Z,24.91
2023-05-05T12:12:37.554Z,25.13
2023-05-05T12:15:05.313Z,25.24
2023-05-05T12:17:38.489Z,25.16
2023-05-05T12:20:05.786Z,25.81
2023-05-05T12:22:32.411Z,25.97
2023-05-05T12:25:01.542Z,26.14
2023-05-05T12:27:31.157Z,25.95
2023-05-05T12:30:12.056Z,25.95
2023-05-05T12:32:38.671Z,26.37
2023-05-05T12:35:07.110Z,26.46
2023-05-05T12:37:34.617Z,26.19
2023-05-05T12:40:01.140Z,26.30
2023-05-05T12:42:30.446Z,26.73
2023-05-05T12:44:57.156Z,26.77
2023-05-05T12:47:31.091Z,26.71
2023-05-05T12:49:58.013Z,26.64
2023-05-05T12:52:24.587Z,26.71
2023-05-05T12:54:59.295Z,26.89
2023-05-05T12:57:26.329Z,27.04
2023-05-05T12:59:53.482Z,27.06
2023-05-05T13:02:20.941Z,26.78
2023-05-05T13:04:53.034Z,26.99
2023-05-05T13:07:21.769Z,27.05
2023-05-05T13:09:49.958Z,27.42
2023-05-05T13:12:20.105Z,27.82
2023-05-05T13:14:46.929Z,28.05
2023-05-05T13:17:14.327Z,28.14
2023-05-05T13:19:41.145Z,28.39
2023-05-05T13:22:08.617Z,28.80
2023-05-05T13:24:49.693Z,29.38
2023-05-05T13:27:17.010Z,29.54
2023-05-05T13:29:43.573Z,29.67
2023-05-05T13:32:10.293Z,29.91
2023-05-05T13:34:36.858Z,29.87
2023-05-05T13:37:03.458Z,29.96
2023-05-05T13:39:30.022Z,30.06
2023-05-05T13:41:56.584Z,29.52
2023-05-05T13:44:23.117Z,29.72
2023-05-05T13:46:49.622Z,29.38
2023-05-05T13:49:16.219Z,28.73
2023-05-05T13:51:43.996Z,28.28
2023-05-05T13:54:10.542Z,28.12
2023-05-05T13:56:37.142Z,28.24
2023-05-05T13:59:06.465Z,28.61
2023-05-05T14:01:33.063Z,28.52
2023-05-05T14:04:00.488Z,28.95
2023-05-05T14:06:28.890Z,29.20
2023-05-05T14:08:55.432Z,29.69
2023-05-05T14:11:22.292Z,29.64
2023-05-05T14:13:48.837Z,30.41
2023-05-05T14:16:15.734Z,29.78
2023-05-05T14:18:42.503Z,29.50
2023-05-05T14:21:09.107Z,29.27
2023-05-05T14:23:35.860Z,28.44
2023-05-05T14:26:02.704Z,28.51
2023-05-05T14:28:29.549Z,29.13
2023-05-05T14:30:56.241Z,29.41
2023-05-05T14:33:25.775Z,29.92
2023-05-05T14:35:52.506Z,30.35
2023-05-05T14:38:19.035Z,31.16
2023-05-05T14:40:53.127Z,31.33
2023-05-05T14:43:25.207Z,31.50
2023-05-05T14:45:51.839Z,31.35
2023-05-05T14:48:18.622Z,31.34
2023-05-05T14:50:45.371Z,31.11
2023-05-05T14:53:11.903Z,30.42
2023-05-05T14:55:38.473Z,30.20
2023-05-05T14:58:05.074Z,30.06
2023-05-05T15:00:31.570Z,30.20
2023-05-05T15:02:58.204Z,30.18
2023-05-05T15:05:24.767Z,30.29
2023-05-05T15:07:51.516Z,30.80
2023-05-05T15:10:21.104Z,31.01
2023-05-05T15:12:48.659Z,30.99
2023-05-05T15:15:15.374Z,31.50
2023-05-05T15:17:42.032Z,31.60
2023-05-05T15:20:08.962Z,31.89
2023-05-05T15:22:35.648Z,32.01
2023-05-05T15:25:02.290Z,32.25
2023-05-05T15:27:28.992Z,32.74
2023-05-05T15:29:58.304Z,32.49
2023-05-05T15:32:24.911Z,32.34
2023-05-05T15:34:51.519Z,32.37
2023-05-05T15:37:18.017Z,32.14
2023-05-05T15:39:44.556Z,31.74
2023-05-05T15:42:11.170Z,31.18
2023-05-05T15:44:37.810Z,31.10
2023-05-05T15:47:04.815Z,30.90
2023-05-05T15:49:31.435Z,30.89
2023-05-05T15:51:58.228Z,30.82
2023-05-05T15:54:24.757Z,30.39
2023-05-05T15:56:51.214Z,30.07
2023-05-05T15:59:19.026Z,29.30
2023-05-05T16:01:45.943Z,29.00
2023-05-05T16:04:12.540Z,28.60
2023-05-05T16:06:39.121Z,28.44
2023-05-05T16:09:05.605Z,28.38
2023-05-05T16:11:32.161Z,28.15
2023-05-05T16:13:58.755Z,28.14
2023-05-05T16:16:25.296Z,28.45
2023-05-05T16:18:51.786Z,28.77
2023-05-05T16:21:18.284Z,28.29
2023-05-05T16:23:44.808Z,27.20
2023-05-05T16:26:11.362Z,26.57
2023-05-05T16:28:38.067Z,25.94
2023-05-05T16:31:04.736Z,25.68
2023-05-05T16:33:31.330Z,25.83
2023-05-05T16:35:57.927Z,24.95
2023-05-05T16:38:24.439Z,24.09
2023-05-05T16:40:51.102Z,23.64
2023-05-05T16:43:17.916Z,23.46
2023-05-05T16:45:44.424Z,22.93
2023-05-05T16:48:11.006Z,23.19
2023-05-05T16:50:37.552Z,23.55
2023-05-05T16:53:04.085Z,23.83
2023-05-05T16:55:30.621Z,24.43
2023-05-05T16:57:57.171Z,25.32
2023-05-05T17:00:23.748Z,25.93
2023-05-05T17:02:50.330Z,26.05
2023-05-05T17:05:17.015Z,25.54
2023-05-05T17:07:43.554Z,25.71
2023-05-05T17:10:10.296Z,25.84
2023-05-05T17:12:36.806Z,26.28
2023-05-05T17:15:03.667Z,27.15
2023-05-05T17:17:30.233Z,27.15
2023-05-05T17:19:56.765Z,27.07
2023-05-05T17:22:23.238Z,27.63
2023-05-05T17:24:49.708Z,28.01
2023-05-05T17:27:16.909Z,28.39
2023-05-05T17:29:43.722Z,28.32
2023-05-05T17:32:10.451Z,28.65
2023-05-05T17:34:37.085Z,29.11
2023-05-05T17:37:03.592Z,28.47
2023-05-05T17:39:30.124Z,27.91
2023-05-05T17:41:56.654Z,27.56
2023-05-05T17:44:23.220Z,27.21
2023-05-05T17:46:49.791Z,27.13
2023-05-05T17:49:16.297Z,26.75
2023-05-05T17:51:42.854Z,26.71
2023-05-05T17:54:09.309Z,26.56
2023-05-05T17:56:35.763Z,26.54
2023-05-05T17:59:02.337Z,26.19
2023-05-05T18:01:28.949Z,25.87
2023-05-05T18:03:55.571Z,25.89
2023-05-05T18:06:22.058Z,25.98
2023-05-05T18:08:48.556Z,26.10
2023-05-05T18:11:15.102Z,26.19
2023-05-05T18:13:42.767Z,26.17
2023-05-05T18:16:09.266Z,25.99
2023-05-05T18:18:35.822Z,25.95
2023-05-05T18:21:02.370Z,25.89
2023-05-05T18:23:28.883Z,25.98
2023-05-05T18:25:55.406Z,25.93
2023-05-05T18:28:21.983Z,25.74
2023-05-05T18:30:48.556Z,25.87
2023-05-05T18:33:15.219Z,25.89
2023-05-05T18:35:41.774Z,25.86
2023-05-05T18:38:08.324Z,25.79
2023-05-05T18:40:35.037Z,25.69
2023-05-05T18:43:01.638Z,25.50
2023-05-05T18:45:28.329Z,25.60
2023-05-05T18:47:54.991Z,25.54
2023-05-05T18:50:21.819Z,25.37
2023-05-05T18:52:48.310Z,25.25
2023-05-05T18:55:15.162Z,25.35
2023-05-05T18:57:41.700Z,25.23
2023-05-05T19:00:09.625Z,25.35
2023-05-05T19:02:36.295Z,25.47
2023-05-05T19:05:03.080Z,25.49
2023-05-05T19:07:35.283Z,25.52
2023-05-05T19:10:04.555Z,25.49
2023-05-05T19:12:31.165Z,25.44
2023-05-05T19:14:57.761Z,25.40
2023-05-05T19:17:24.752Z,25.08
2023-05-05T19:19:51.355Z,25.08
2023-05-05T19:22:20.549Z,25.03
2023-05-05T19:24:47.082Z,25.04
2023-05-05T19:27:16.407Z,25.08
2023-05-05T19:29:43.495Z,25.09
2023-05-05T19:32:10.177Z,25.07
2023-05-05T19:34:36.797Z,25.10
2023-05-05T19:37:03.297Z,24.95
2023-05-05T19:39:29.826Z,25.14
2023-05-05T19:41:56.444Z,25.19
2023-05-05T19:44:23.002Z,25.14
2023-05-05T19:46:49.490Z,25.19
2023-05-05T19:49:16.062Z,25.13
2023-05-05T19:51:42.533Z,25.09
2023-05-05T19:54:09.072Z,25.02
2023-05-05T19:56:35.551Z,24.96
2023-05-05T19:59:03.057Z,24.51
2023-05-05T20:01:30.035Z,24.58
2023-05-05T20:03:56.996Z,24.38
2023-05-05T20:06:23.639Z,24.32
2023-05-05T20:08:50.403Z,24.26
2023-05-05T20:11:17.060Z,24.19
2023-05-05T20:13:43.986Z,24.08
2023-05-05T20:16:11.538Z,24.08
2023-05-05T20:18:38.282Z,23.55
2023-05-05T20:21:04.762Z,23.30
2023-05-05T20:23:31.270Z,23.34
2023-05-05T20:25:57.781Z,23.36
2023-05-05T20:28:24.390Z,23.39
2023-05-05T20:30:50.878Z,23.49
2023-05-05T20:33:17.409Z,23.35
2023-05-05T20:35:43.915Z,23.14
2023-05-05T20:38:10.387Z,22.95
2023-05-05T20:40:36.891Z,22.84
2023-05-05T20:43:03.422Z,22.66
2023-05-05T20:45:29.949Z,22.15
2023-05-05T20:47:56.504Z,22.26
2023-05-05T20:50:23.041Z,22.19
2023-05-05T20:52:49.653Z,22.28
2023-05-05T20:55:16.135Z,22.23
2023-05-05T20:57:42.651Z,22.30
2023-05-05T21:00:09.828Z,22.43
2023-05-05T21:02:36.938Z,22.56
2023-05-05T21:05:03.777Z,22.62
2023-05-05T21:07:48.924Z,22.73
2023-05-05T21:10:34.120Z,22.74
2023-05-05T21:13:19.402Z,22.74
2023-05-05T21:15:45.962Z,22.82
2023-05-05T21:18:12.594Z,22.78
2023-05-05T21:20:39.105Z,22.77
2023-05-05T21:23:05.581Z,22.79
2023-05-05T21:25:32.181Z,22.76
2023-05-05T21:27:58.724Z,22.78
2023-05-05T21:30:25.305Z,22.78
2023-05-05T21:33:10.532Z,22.90
2023-05-05T21:35:55.648Z,22.99
2023-05-05T21:38:40.967Z,22.95
2023-05-05T21:41:07.538Z,23.01
2023-05-05T21:43:52.788Z,22.96
2023-05-05T21:46:37.721Z,22.90
2023-05-05T21:49:23.195Z,22.90
2023-05-05T21:52:08.209Z,22.91
2023-05-05T21:54:53.231Z,22.99
2023-05-05T21:57:38.332Z,22.90
2023-05-05T22:00:05.196Z,22.95
2023-05-05T22:02:32.344Z,22.84
2023-05-05T22:04:58.896Z,22.82
2023-05-05T22:07:25.594Z,22.47
2023-05-05T22:09:52.200Z,22.59
2023-05-05T22:12:18.686Z,22.57
2023-05-05T22:14:45.200Z,22.29
2023-05-05T22:17:11.701Z,22.01
2023-05-05T22:19:38.214Z,22.03
2023-05-05T22:22:04.687Z,21.79
2023-05-05T22:24:31.970Z,21.64
2023-05-05T22:26:58.620Z,21.74
2023-05-05T22:29:25.158Z,21.60
2023-05-05T22:31:51.819Z,21.34
2023-05-05T22:34:18.439Z,21.36
2023-05-05T22:36:44.917Z,21.43
2023-05-05T22:39:11.450Z,21.44
2023-05-05T22:41:37.925Z,21.60
2023-05-05T22:44:04.513Z,21.71
2023-05-05T22:46:31.227Z,21.73
2023-05-05T22:48:57.837Z,21.88
2023-05-05T22:51:24.359Z,22.00
2023-05-05T22:53:50.928Z,22.07
2023-05-05T22:56:17.461Z,22.21
2023-05-05T22:58:44.128Z,22.24
2023-05-05T23:01:10.955Z,21.71
2023-05-05T23:03:37.563Z,21.59
2023-05-05T23:06:04.059Z,21.75
2023-05-05T23:08:30.610Z,21.81
2023-05-05T23:10:57.149Z,21.87
2023-05-05T23:13:23.708Z,21.90
2023-05-05T23:15:50.289Z,21.93
2023-05-05T23:18:16.774Z,22.01
2023-05-05T23:20:43.986Z,22.08
2023-05-05T23:23:10.510Z,22.04
2023-05-05T23:25:36.998Z,21.92
2023-05-05T23:28:03.645Z,21.97
2023-05-05T23:30:30.198Z,21.96
2023-05-05T23:32:56.743Z,21.96
2023-05-05T23:35:24.056Z,21.87
2023-05-05T23:37:50.514Z,21.89
2023-05-05T23:40:17.113Z,21.85
2023-05-05T23:42:43.627Z,21.92
2023-05-05T23:45:10.652Z,21.95
2023-05-05T23:47:38.668Z,21.85
2023-05-05T23:50:05.575Z,21.81
2023-05-05T23:52:32.046Z,21.76
2023-05-05T23:54:58.501Z,21.70
2023-05-05T23:57:24.973Z,21.69
2023-05-05T23:59:51.452Z,21.71
